Time;durP1;ratioP1;P1;durP2;ratioP2;P2;SDS_P1;SDS_P2;PMS_P1;PMS_P2;Temp;Humidity;BMP_temperature;BMP_pressure;BME280_temperature;BME280_humidity;BME280_pressure;Samples;Min_cycle;Max_cycle;Signal;HPM_P1;HPM_P2
2023/08/03 00:01:30;;;;;;;21.60;11.10;;;;;;;21.59;100.00;100175.10;106910;1283;59058;-82
2023/08/03 00:03:57;;;;;;;17.40;10.80;;;;;;;21.53;100.00;100175.87;106944;1284;59209;-82
2023/08/03 00:06:22;;;;;;;18.30;10.90;;;;;;;21.49;100.00;100178.30;106929;1284;73751;-82
2023/08/03 00:08:48;;;;;;;15.00;10.10;;;;;;;21.44;100.00;100183.50;106956;1284;59028;-82
2023/08/03 00:11:13;;;;;;;19.70;11.20;;;;;;;21.41;100.00;100180.02;106861;1285;59058;-83
2023/08/03 00:13:38;;;;;;;18.50;11.30;;;;;;;21.41;100.00;100181.35;106858;1283;59435;-82
2023/08/03 00:16:04;;;;;;;16.50;9.90;;;;;;;21.39;100.00;100178.70;106954;1284;59114;-82
2023/08/03 00:18:29;;;;;;;17.90;10.30;;;;;;;21.35;100.00;100175.41;106916;1283;59084;-82
2023/08/03 00:20:55;;;;;;;17.30;11.00;;;;;;;21.31;100.00;100172.95;106887;1284;59080;-83
2023/08/03 00:23:20;;;;;;;19.00;10.80;;;;;;;21.28;100.00;100171.98;106927;1284;59120;-82
2023/08/03 00:25:46;;;;;;;17.60;10.30;;;;;;;21.23;100.00;100172.76;106815;1284;59923;-82
2023/08/03 00:28:11;;;;;;;15.60;10.20;;;;;;;21.21;100.00;100169.39;106988;1284;59031;-82
2023/08/03 00:30:37;;;;;;;18.20;10.40;;;;;;;21.19;100.00;100169.32;106842;1284;59040;-82
2023/08/03 00:33:02;;;;;;;16.60;11.20;;;;;;;21.14;100.00;100173.00;106925;1284;59227;-83
2023/08/03 00:35:28;;;;;;;16.70;11.30;;;;;;;21.11;100.00;100172.84;106891;1284;59105;-82
2023/08/03 00:37:53;;;;;;;17.50;12.00;;;;;;;21.07;100.00;100174.27;106967;1284;59045;-82
2023/08/03 00:40:19;;;;;;;18.60;12.10;;;;;;;21.04;100.00;100179.59;106870;1283;72751;-82
2023/08/03 00:42:45;;;;;;;20.70;12.20;;;;;;;21.03;100.00;100175.47;106907;1284;58986;-82
2023/08/03 00:45:13;;;;;;;23.70;11.70;;;;;;;21.04;100.00;100178.08;106943;1283;59055;-82
2023/08/03 00:47:39;;;;;;;16.60;11.40;;;;;;;21.05;100.00;100177.16;106924;1284;75355;-82
2023/08/03 00:50:06;;;;;;;19.10;10.80;;;;;;;21.02;100.00;100177.85;106909;1284;58893;-83
2023/08/03 00:52:35;;;;;;;17.10;10.80;;;;;;;20.96;100.00;100176.98;106368;1284;59542;-82
2023/08/03 00:55:01;;;;;;;19.50;11.10;;;;;;;20.92;100.00;100174.48;106859;1284;62629;-82
2023/08/03 00:57:28;;;;;;;19.90;11.20;;;;;;;20.90;100.00;100174.72;106799;1283;59102;-82
2023/08/03 00:59:54;;;;;;;19.60;11.70;;;;;;;20.90;100.00;100181.14;106883;1284;74515;-82
2023/08/03 01:02:20;;;;;;;18.40;11.30;;;;;;;20.88;100.00;100180.42;106940;1284;59519;-82
2023/08/03 01:04:45;;;;;;;15.40;11.00;;;;;;;20.84;100.00;100183.60;106900;1283;59040;-82
2023/08/03 01:07:10;;;;;;;18.80;11.40;;;;;;;20.81;100.00;100188.36;106604;1286;59264;-82
2023/08/03 01:09:36;;;;;;;14.80;9.90;;;;;;;20.77;100.00;100184.22;106958;1283;59061;-82
2023/08/03 01:12:02;;;;;;;18.10;12.50;;;;;;;20.74;100.00;100185.54;106956;1284;59105;-81
2023/08/03 01:14:27;;;;;;;16.80;11.10;;;;;;;20.76;100.00;100187.77;106868;1284;59041;-82
2023/08/03 01:16:53;;;;;;;18.50;11.70;;;;;;;20.72;100.00;100193.04;106883;1284;58987;-82
2023/08/03 01:19:18;;;;;;;17.20;11.40;;;;;;;20.69;100.00;100192.93;106937;1284;59081;-81
2023/08/03 01:21:46;;;;;;;15.60;11.10;;;;;;;20.69;100.00;100191.77;106889;1284;59023;-82
2023/08/03 01:24:12;;;;;;;16.50;11.30;;;;;;;20.68;100.00;100192.35;106482;1285;59253;-81
2023/08/03 01:26:38;;;;;;;15.00;9.90;;;;;;;20.67;100.00;100198.48;106870;1284;59042;-81
2023/08/03 01:29:03;;;;;;;13.60;11.10;;;;;;;20.65;100.00;100194.36;106954;1283;59259;-82
2023/08/03 01:31:29;;;;;;;16.50;11.80;;;;;;;20.64;100.00;100195.04;106911;1283;75362;-82
2023/08/03 01:33:55;;;;;;;20.40;11.50;;;;;;;20.62;100.00;100195.61;106916;1284;59227;-82
2023/08/03 01:36:21;;;;;;;15.80;10.50;;;;;;;20.61;100.00;100200.70;106888;1284;59038;-81
2023/08/03 01:38:55;;;;;;;17.80;11.80;;;;;;;20.59;100.00;100197.45;106872;1284;58966;-82
2023/08/03 01:41:22;;;;;;;20.80;11.30;;;;;;;20.59;100.00;100204.02;106897;1283;61128;-82
2023/08/03 01:44:13;;;;;;;19.50;11.80;;;;;;;20.54;100.00;100204.66;106818;1284;74395;-82
2023/08/03 01:46:38;;;;;;;18.60;11.00;;;;;;;20.52;100.00;100207.34;106880;1284;74209;-81
2023/08/03 01:49:03;;;;;;;19.50;10.70;;;;;;;20.50;100.00;100209.42;106570;1283;59172;-82
2023/08/03 01:51:29;;;;;;;22.30;11.10;;;;;;;20.46;100.00;100204.99;106888;1284;59065;-81
2023/08/03 01:53:54;;;;;;;18.30;10.90;;;;;;;20.45;100.00;100205.20;106965;1284;59120;-82
2023/08/03 01:56:20;;;;;;;16.70;10.10;;;;;;;20.44;100.00;100206.65;106655;1284;59161;-81
2023/08/03 01:58:45;;;;;;;14.70;10.30;;;;;;;20.40;100.00;100211.88;106918;1283;58969;-82
2023/08/03 02:01:10;;;;;;;20.70;11.50;;;;;;;20.35;100.00;100217.88;106580;1284;59130;-81
2023/08/03 02:03:36;;;;;;;18.40;10.90;;;;;;;20.29;100.00;100216.89;106878;1285;59111;-82
2023/08/03 02:06:01;;;;;;;19.30;10.60;;;;;;;20.26;100.00;100212.24;106962;1284;59391;-81
2023/08/03 02:08:27;;;;;;;15.80;11.20;;;;;;;20.28;100.00;100219.48;106839;1284;72705;-82
2023/08/03 02:10:52;;;;;;;17.00;12.30;;;;;;;20.29;100.00;100224.91;106884;1284;59067;-82
2023/08/03 02:13:18;;;;;;;25.70;11.70;;;;;;;20.26;100.00;100224.29;106892;1284;59324;-82
2023/08/03 02:15:43;;;;;;;15.60;10.80;;;;;;;20.25;100.00;100223.45;106934;1284;59080;-81
2023/08/03 02:18:09;;;;;;;16.80;10.80;;;;;;;20.21;100.00;100227.13;106691;1284;59138;-82
2023/08/03 02:20:34;;;;;;;16.80;10.40;;;;;;;20.19;100.00;100224.02;106896;1284;59001;-81
2023/08/03 02:22:59;;;;;;;18.80;11.70;;;;;;;20.17;100.00;100223.27;106936;1284;59377;-81
2023/08/03 02:25:25;;;;;;;18.60;11.60;;;;;;;20.14;100.00;100229.40;106925;1283;59057;-81
2023/08/03 02:27:51;;;;;;;14.70;10.80;;;;;;;20.12;100.00;100229.30;106918;1284;59414;-81
2023/08/03 02:30:16;;;;;;;18.00;11.40;;;;;;;20.16;100.00;100227.33;106863;1284;60663;-81
2023/08/03 02:32:42;;;;;;;18.80;12.40;;;;;;;20.21;100.00;100231.77;106938;1284;58970;-82
2023/08/03 02:35:07;;;;;;;16.00;11.10;;;;;;;20.26;100.00;100228.73;106908;1284;59567;-82
2023/08/03 02:37:33;;;;;;;21.80;11.90;;;;;;;20.31;100.00;100230.56;106592;1285;59101;-82
2023/08/03 02:39:58;;;;;;;16.80;11.20;;;;;;;20.34;100.00;100238.51;106928;1284;59057;-81
2023/08/03 02:42:24;;;;;;;22.10;11.70;;;;;;;20.37;100.00;100244.17;106852;1285;59092;-82
2023/08/03 02:44:49;;;;;;;16.10;11.40;;;;;;;20.45;100.00;100242.75;106927;1284;59130;-81
2023/08/03 02:47:15;;;;;;;18.60;12.20;;;;;;;20.52;100.00;100238.08;106894;1285;59038;-81
2023/08/03 02:49:40;;;;;;;26.50;12.20;;;;;;;20.61;100.00;100238.56;106877;1285;59131;-82
2023/08/03 02:52:06;;;;;;;18.00;12.20;;;;;;;20.72;100.00;100236.01;106925;1284;58958;-81
2023/08/03 02:54:31;;;;;;;18.90;11.60;;;;;;;20.87;100.00;100233.38;106894;1284;59039;-82
2023/08/03 02:56:57;;;;;;;15.80;10.70;;;;;;;21.00;100.00;100232.34;106901;1285;59120;-81
2023/08/03 02:59:22;;;;;;;18.50;12.30;;;;;;;21.11;100.00;100229.05;106891;1283;59053;-82
2023/08/03 03:01:47;;;;;;;24.80;11.50;;;;;;;21.24;100.00;100228.31;106626;1287;59414;-82
2023/08/03 03:04:13;;;;;;;18.80;11.20;;;;;;;21.39;100.00;100231.41;106541;1287;75394;-82
2023/08/03 03:06:38;;;;;;;19.10;11.30;;;;;;;21.53;100.00;100235.41;106572;1287;59485;-82
2023/08/03 03:09:04;;;;;;;19.60;11.30;;;;;;;21.66;100.00;100239.59;106499;1286;59097;-80
2023/08/03 03:11:29;;;;;;;18.50;11.80;;;;;;;21.82;100.00;100237.58;106479;1289;59143;-80
2023/08/03 03:13:55;;;;;;;21.50;12.30;;;;;;;21.97;100.00;100237.27;106580;1287;59243;-81
2023/08/03 03:16:25;;;;;;;22.50;12.40;;;;;;;22.13;100.00;100243.07;106583;1287;59062;-81
2023/08/03 03:18:51;;;;;;;22.60;13.10;;;;;;;22.30;100.00;100246.72;106375;1288;70694;-81
2023/08/03 03:21:16;;;;;;;20.10;13.30;;;;;;;22.46;100.00;100246.80;106505;1288;59334;-81
2023/08/03 03:23:42;;;;;;;21.70;14.30;;;;;;;22.65;100.00;100249.84;106539;1287;59075;-82
2023/08/03 03:26:07;;;;;;;21.10;13.70;;;;;;;22.83;100.00;100246.36;106233;1288;59172;-82
2023/08/03 03:28:33;;;;;;;30.60;14.90;;;;;;;23.06;100.00;100248.65;106585;1287;59481;-82
2023/08/03 03:30:58;;;;;;;25.30;15.20;;;;;;;23.37;100.00;100251.77;106503;1286;62770;-82
2023/08/03 03:33:24;;;;;;;25.70;16.50;;;;;;;23.65;100.00;100248.46;106560;1287;59206;-82
2023/08/03 03:35:49;;;;;;;31.90;17.00;;;;;;;23.85;100.00;100247.70;106532;1288;59171;-82
2023/08/03 03:38:15;;;;;;;29.90;16.70;;;;;;;24.03;100.00;100250.39;106504;1288;59255;-82
2023/08/03 03:40:40;;;;;;;29.80;16.60;;;;;;;24.21;100.00;100246.84;106778;1285;59190;-82
2023/08/03 03:43:05;;;;;;;28.70;17.20;;;;;;;24.38;100.00;100247.75;106886;1284;59016;-82
2023/08/03 03:45:31;;;;;;;27.80;16.70;;;;;;;24.62;100.00;100249.84;106899;1284;59037;-82
2023/08/03 03:47:57;;;;;;;27.40;17.80;;;;;;;25.01;100.00;100248.85;106901;1285;59170;-82
2023/08/03 03:50:22;;;;;;;23.80;16.70;;;;;;;25.50;100.00;100246.88;106908;1285;58950;-83
2023/08/03 03:52:48;;;;;;;24.20;16.60;;;;;;;26.00;100.00;100243.09;106946;1284;59064;-83
2023/08/03 03:55:13;;;;;;;27.30;16.80;;;;;;;26.42;100.00;100239.15;106879;1283;59115;-84
2023/08/03 03:57:39;;;;;;;26.10;15.10;;;;;;;26.85;100.00;100242.19;106872;1285;59044;-83
2023/08/03 04:00:05;;;;;;;29.60;16.50;;;;;;;27.49;100.00;100246.12;106870;1285;59245;-82
2023/08/03 04:02:31;;;;;;;28.20;16.80;;;;;;;27.89;100.00;100246.99;106660;1284;60112;-82
2023/08/03 04:04:56;;;;;;;24.00;14.80;;;;;;;28.08;100.00;100248.05;106875;1283;58942;-81
2023/08/03 04:07:21;;;;;;;30.50;16.20;;;;;;;28.27;100.00;100244.04;107008;1285;59144;-83
2023/08/03 04:09:47;;;;;;;24.00;15.00;;;;;;;28.83;100.00;100245.61;106853;1285;58987;-82
2023/08/03 04:12:13;;;;;;;24.90;16.10;;;;;;;29.40;100.00;100249.66;106875;1285;59978;-83
2023/08/03 04:14:38;;;;;;;26.70;16.20;;;;;;;29.58;100.00;100251.25;106632;1285;59064;-84
2023/08/03 04:17:04;;;;;;;21.20;14.70;;;;;;;29.72;100.00;100254.11;106946;1285;59120;-83
2023/08/03 04:19:29;;;;;;;29.10;16.20;;;;;;;29.67;100.00;100254.11;106974;1285;59102;-81
2023/08/03 04:21:57;;;;;;;25.50;15.80;;;;;;;29.39;100.00;100253.38;106915;1284;59425;-83
2023/08/03 04:24:23;;;;;;;29.40;16.50;;;;;;;29.18;100.00;100252.27;106850;1285;60164;-85
2023/08/03 04:26:48;;;;;;;26.90;15.80;;;;;;;29.00;100.00;100256.98;106888;1285;59046;-84
2023/08/03 04:29:14;;;;;;;28.10;16.60;;;;;;;28.96;100.00;100261.89;106586;1285;59063;-83
2023/08/03 04:31:42;;;;;;;25.00;15.30;;;;;;;29.03;100.00;100270.31;106870;1284;60219;-81
2023/08/03 04:34:07;;;;;;;21.60;15.50;;;;;;;29.16;100.00;100270.98;106892;1284;59141;-83
2023/08/03 04:36:33;;;;;;;28.40;16.90;;;;;;;29.32;100.00;100272.50;106645;1284;59206;-83
2023/08/03 04:38:58;;;;;;;29.80;15.70;;;;;;;29.39;100.00;100272.98;106973;1284;58968;-83
2023/08/03 04:41:23;;;;;;;25.90;16.20;;;;;;;29.44;100.00;100280.13;106901;1285;73222;-82
2023/08/03 04:43:49;;;;;;;24.80;14.70;;;;;;;29.68;100.00;100281.80;106936;1284;59100;-82
2023/08/03 04:46:14;;;;;;;23.80;14.60;;;;;;;30.12;100.00;100281.91;106890;1284;59162;-84
2023/08/03 04:48:40;;;;;;;25.10;14.90;;;;;;;30.80;100.00;100271.41;106898;1285;59127;-82
2023/08/03 04:51:06;;;;;;;28.50;14.20;;;;;;;31.47;100.00;100276.10;106937;1283;59106;-83
2023/08/03 04:53:31;;;;;;;24.80;13.90;;;;;;;32.04;99.38;100278.77;106881;1284;60073;-84
2023/08/03 04:55:56;;;;;;;20.40;13.00;;;;;;;32.20;97.16;100277.58;106557;1284;59135;-84
2023/08/03 04:58:22;;;;;;;31.10;13.40;;;;;;;32.25;96.19;100278.33;106891;1285;59176;-84
2023/08/03 05:00:47;;;;;;;20.20;12.70;;;;;;;32.65;93.21;100284.31;106887;1285;59060;-83
2023/08/03 05:03:13;;;;;;;23.00;13.10;;;;;;;32.96;86.86;100279.83;106831;1285;59097;-84
2023/08/03 05:05:38;;;;;;;18.30;12.00;;;;;;;33.12;85.24;100277.36;106906;1283;59063;-85
2023/08/03 05:08:04;;;;;;;16.80;11.20;;;;;;;33.79;83.42;100276.92;106896;1285;59452;-86
2023/08/03 05:10:29;;;;;;;16.90;11.40;;;;;;;34.58;78.01;100277.48;106778;1284;58961;-84
2023/08/03 05:12:55;;;;;;;16.50;10.80;;;;;;;35.19;73.67;100274.31;106875;1284;59471;-85
2023/08/03 05:15:20;;;;;;;23.00;11.30;;;;;;;35.78;70.62;100279.02;107004;1284;59173;-84
2023/08/03 05:17:49;;;;;;;16.00;9.80;;;;;;;36.27;66.07;100283.34;106934;1287;59007;-84
2023/08/03 05:20:15;;;;;;;15.00;10.30;;;;;;;36.66;63.26;100286.30;106872;1285;73391;-85
2023/08/03 05:22:41;;;;;;;13.40;9.60;;;;;;;37.16;60.59;100286.63;106923;1285;59049;-86
2023/08/03 05:25:07;;;;;;;14.60;9.30;;;;;;;37.67;58.45;100282.84;106784;1285;59059;-84
2023/08/03 05:27:33;;;;;;;12.00;9.80;;;;;;;38.17;55.97;100286.60;106822;1285;59156;-84
2023/08/03 05:29:58;;;;;;;12.20;9.10;;;;;;;38.38;54.22;100293.20;106663;1284;59025;-83
2023/08/03 05:32:27;;;;;;;20.70;10.10;;;;;;;38.68;52.90;100297.10;106861;1285;59009;-84
2023/08/03 05:34:52;;;;;;;15.90;9.90;;;;;;;38.96;51.47;100295.52;106735;1286;60647;-84
2023/08/03 05:37:18;;;;;;;14.60;9.70;;;;;;;39.24;50.51;100302.96;106951;1285;59268;-85
2023/08/03 05:39:44;;;;;;;15.60;9.40;;;;;;;39.49;49.15;100307.44;106914;1288;59055;-86
2023/08/03 05:42:14;;;;;;;11.50;9.30;;;;;;;39.76;47.68;100308.45;106893;1286;59034;-84
2023/08/03 05:44:40;;;;;;;12.30;9.30;;;;;;;39.87;46.74;100308.16;106685;1284;72474;-86
2023/08/03 05:47:09;;;;;;;14.50;10.10;;;;;;;40.14;46.16;100306.81;106762;1284;59004;-85
2023/08/03 05:49:35;;;;;;;17.10;10.40;;;;;;;40.19;45.69;100310.02;106911;1285;61287;-86
2023/08/03 05:52:00;;;;;;;13.50;9.60;;;;;;;40.16;45.58;100309.53;106925;1285;59114;-85
2023/08/03 05:54:26;;;;;;;14.40;9.90;;;;;;;40.44;45.81;100311.15;106922;1286;59105;-85
2023/08/03 05:56:51;;;;;;;12.80;9.60;;;;;;;40.96;44.74;100310.16;106924;1285;59129;-85
2023/08/03 05:59:22;;;;;;;12.90;9.80;;;;;;;41.20;43.36;100315.52;106942;1285;58936;-86
2023/08/03 06:01:49;;;;;;;13.90;9.80;;;;;;;41.19;42.55;100317.91;106948;1285;76306;-86
2023/08/03 06:04:16;;;;;;;18.20;10.20;;;;;;;41.48;42.31;100322.23;106505;1284;74096;-86
2023/08/03 06:06:42;;;;;;;12.10;9.50;;;;;;;41.91;41.88;100325.46;106625;1285;72440;-86
2023/08/03 06:09:11;;;;;;;12.50;9.90;;;;;;;42.18;41.47;100321.41;106901;1285;59035;-86
2023/08/03 06:11:37;;;;;;;10.40;9.00;;;;;;;42.51;40.63;100318.74;106623;1283;60078;-86
2023/08/03 06:14:04;;;;;;;12.60;10.00;;;;;;;42.90;40.57;100322.77;106698;1285;59504;-87
2023/08/03 06:16:29;;;;;;;13.70;9.70;;;;;;;43.21;39.68;100320.17;106795;1284;59122;-86
2023/08/03 06:18:58;;;;;;;12.00;8.90;;;;;;;43.47;38.82;100325.84;106896;1285;59051;-87
2023/08/03 06:21:26;;;;;;;12.20;9.10;;;;;;;43.81;37.94;100319.94;106883;1284;61032;-87
2023/08/03 06:23:54;;;;;;;13.60;8.40;;;;;;;44.12;37.64;100324.23;106819;1285;58901;-86
2023/08/03 06:26:21;;;;;;;13.10;8.60;;;;;;;44.47;36.69;100322.73;106513;1287;75437;-86
2023/08/03 06:28:49;;;;;;;9.50;8.60;;;;;;;44.74;35.98;100324.75;106778;1283;72299;-87
2023/08/03 06:31:46;;;;;;;12.20;8.50;;;;;;;45.01;35.87;100328.07;106572;1286;63916;-86
2023/08/03 06:34:12;;;;;;;16.30;9.10;;;;;;;45.37;35.23;100329.91;106070;1292;59056;-86
2023/08/03 06:36:40;;;;;;;10.30;8.70;;;;;;;45.72;34.38;100333.35;106104;1292;59156;-86
2023/08/03 06:39:06;;;;;;;10.10;8.10;;;;;;;45.93;34.26;100333.24;105943;1291;329755;-86
2023/08/03 06:41:31;;;;;;;11.10;8.30;;;;;;;45.86;33.21;100334.55;106171;1292;59650;-86
2023/08/03 06:43:57;;;;;;;13.30;8.10;;;;;;;45.71;33.67;100336.14;106065;1291;59253;-86
2023/08/03 06:46:24;;;;;;;9.30;7.80;;;;;;;46.13;33.68;100338.58;106195;1292;59100;-86
2023/08/03 06:48:50;;;;;;;13.40;8.30;;;;;;;46.53;32.38;100338.05;106210;1291;59215;-85
2023/08/03 06:51:16;;;;;;;15.10;8.60;;;;;;;46.75;32.00;100336.27;106208;1292;59153;-86
2023/08/03 06:53:42;;;;;;;12.90;9.20;;;;;;;46.87;31.69;100336.20;106171;1291;59557;-86
2023/08/03 06:56:08;;;;;;;13.30;9.20;;;;;;;46.74;31.60;100335.98;106196;1292;59054;-86
2023/08/03 06:58:33;;;;;;;9.60;8.70;;;;;;;46.90;31.37;100336.64;106128;1292;59094;-87
2023/08/03 07:00:59;;;;;;;10.40;8.50;;;;;;;46.77;30.66;100341.28;106211;1291;59121;-82
2023/08/03 07:03:25;;;;;;;10.30;8.10;;;;;;;46.63;30.49;100341.16;106200;1291;59139;-83
2023/08/03 07:05:51;;;;;;;9.60;8.60;;;;;;;46.66;30.51;100343.75;106191;1291;59144;-84
2023/08/03 07:08:16;;;;;;;12.40;9.20;;;;;;;46.89;30.82;100345.58;106166;1291;59056;-84
2023/08/03 07:10:42;;;;;;;9.90;8.70;;;;;;;47.15;30.26;100345.56;106389;1286;59293;-84
2023/08/03 07:13:07;;;;;;;10.30;9.20;;;;;;;47.40;29.75;100340.26;106700;1285;64577;-83
2023/08/03 07:15:34;;;;;;;9.40;8.30;;;;;;;47.30;29.50;100344.45;106412;1286;59203;-83
2023/08/03 07:18:09;;;;;;;10.20;9.10;;;;;;;46.94;29.45;100346.41;106750;1285;59029;-83
2023/08/03 07:20:35;;;;;;;9.90;8.90;;;;;;;47.15;29.57;100344.73;106688;1285;59016;-83
2023/08/03 07:23:00;;;;;;;10.30;9.00;;;;;;;47.38;28.95;100343.70;106747;1285;59037;-84
2023/08/03 07:25:26;;;;;;;9.50;8.10;;;;;;;47.35;28.98;100349.19;106586;1287;58980;-83
2023/08/03 07:27:53;;;;;;;15.50;8.00;;;;;;;47.36;29.11;100352.00;106452;1286;59068;-83
2023/08/03 07:30:19;;;;;;;9.40;7.20;;;;;;;47.47;28.60;100350.89;106518;1287;59040;-82
2023/08/03 07:32:44;;;;;;;8.00;7.30;;;;;;;47.63;28.50;100353.23;106841;1285;59475;-85
2023/08/03 07:35:10;;;;;;;8.50;7.10;;;;;;;48.04;28.19;100352.29;106968;1284;59419;-84
2023/08/03 07:37:35;;;;;;;9.00;7.00;;;;;;;48.27;27.83;100351.69;106878;1284;63650;-84
2023/08/03 07:40:01;;;;;;;9.60;7.20;;;;;;;48.06;27.80;100350.55;106606;1284;59250;-83
2023/08/03 07:42:27;;;;;;;10.20;6.90;;;;;;;47.77;27.66;100357.44;106924;1285;59189;-84
2023/08/03 07:44:53;;;;;;;6.90;6.20;;;;;;;47.57;27.76;100364.38;106792;1284;59087;-84
2023/08/03 07:47:20;;;;;;;6.50;5.90;;;;;;;47.45;27.67;100363.27;106960;1284;59067;-84
2023/08/03 07:49:45;;;;;;;6.50;5.90;;;;;;;47.49;27.90;100367.92;106620;1284;59007;-85
2023/08/03 07:52:11;;;;;;;7.60;6.80;;;;;;;47.82;27.64;100363.30;106498;1285;58994;-85
2023/08/03 07:54:36;;;;;;;7.00;6.30;;;;;;;48.09;27.43;100362.91;107005;1284;59090;-85
2023/08/03 07:57:03;;;;;;;7.60;6.50;;;;;;;48.11;26.65;100364.67;106610;1284;59923;-84
2023/08/03 07:59:29;;;;;;;8.50;6.80;;;;;;;47.72;27.09;100371.02;106771;1284;73598;-82
2023/08/03 08:01:54;;;;;;;6.60;6.00;;;;;;;47.56;27.53;100372.00;107057;1284;59099;-80
2023/08/03 08:04:20;;;;;;;7.00;6.30;;;;;;;47.63;27.31;100376.09;106794;1284;59132;-84
2023/08/03 08:06:45;;;;;;;7.20;6.50;;;;;;;47.79;27.21;100370.11;106784;1285;59059;-83
2023/08/03 08:09:11;;;;;;;7.60;6.80;;;;;;;47.90;27.06;100372.57;106984;1284;59012;-83
2023/08/03 08:11:36;;;;;;;8.10;6.30;;;;;;;47.82;26.95;100374.79;106930;1285;59024;-83
2023/08/03 08:14:02;;;;;;;8.20;7.20;;;;;;;47.82;27.00;100377.05;106936;1284;59106;-83
2023/08/03 08:16:28;;;;;;;9.20;6.10;;;;;;;48.26;26.92;100373.27;106806;1286;59235;-82
2023/08/03 08:18:53;;;;;;;6.80;5.50;;;;;;;48.49;26.50;100371.66;106954;1284;59482;-83
2023/08/03 08:21:19;;;;;;;6.30;5.70;;;;;;;48.47;26.44;100376.05;106621;1285;59093;-84
2023/08/03 08:23:44;;;;;;;8.20;5.30;;;;;;;48.01;26.52;100374.70;107002;1284;58873;-84
2023/08/03 08:26:17;;;;;;;6.50;5.20;;;;;;;47.60;26.34;100376.26;106969;1284;59096;-83
2023/08/03 08:28:44;;;;;;;6.70;5.20;;;;;;;47.51;26.67;100377.84;106941;1284;65980;-83
2023/08/03 08:31:10;;;;;;;8.40;5.90;;;;;;;47.70;26.34;100376.84;106958;1284;64576;-84
2023/08/03 08:33:37;;;;;;;6.30;4.90;;;;;;;47.67;26.39;100380.23;106828;1285;59018;-83
2023/08/03 08:36:03;;;;;;;5.90;5.40;;;;;;;47.59;26.87;100372.10;106832;1285;59043;-83
2023/08/03 08:38:29;;;;;;;5.60;5.00;;;;;;;47.65;27.32;100372.80;106957;1284;59003;-84
2023/08/03 08:40:55;;;;;;;7.00;5.20;;;;;;;47.77;27.32;100374.48;106980;1284;59007;-84
2023/08/03 08:43:21;;;;;;;9.20;5.30;;;;;;;47.99;26.96;100372.89;106951;1284;59090;-82
2023/08/03 08:45:47;;;;;;;6.20;4.80;;;;;;;47.84;26.86;100377.05;106959;1284;59028;-84
2023/08/03 08:48:12;;;;;;;9.20;4.90;;;;;;;47.78;26.97;100375.25;106796;1284;59105;-82
2023/08/03 08:50:38;;;;;;;7.10;4.80;;;;;;;47.90;26.45;100371.68;106870;1283;59188;-83
2023/08/03 08:53:04;;;;;;;6.30;4.60;;;;;;;48.08;26.96;100370.80;106906;1284;62801;-83
2023/08/03 08:55:31;;;;;;;10.20;4.40;;;;;;;48.41;26.61;100369.63;106979;1285;59061;-84
2023/08/03 08:57:58;;;;;;;5.60;4.90;;;;;;;48.58;25.92;100367.86;106973;1284;58986;-84
2023/08/03 09:00:24;;;;;;;4.70;4.30;;;;;;;48.61;25.77;100367.48;106529;1285;65690;-84
2023/08/03 09:02:56;;;;;;;5.00;4.50;;;;;;;48.61;26.08;100366.08;106944;1285;58996;-82
2023/08/03 09:05:25;;;;;;;6.50;4.50;;;;;;;48.60;26.04;100369.10;106905;1284;64845;-83
2023/08/03 09:08:05;;;;;;;5.40;4.40;;;;;;;48.46;25.71;100369.55;106909;1284;58936;-84
2023/08/03 09:10:46;;;;;;;6.20;4.40;;;;;;;48.23;25.99;100365.81;106783;1285;58960;-83
2023/08/03 09:13:36;;;;;;;9.40;4.00;;;;;;;48.18;26.19;100366.77;106799;1284;66818;-83
2023/08/03 09:16:02;;;;;;;5.30;4.20;;;;;;;48.04;26.24;100368.74;106811;1285;63456;-82
2023/08/03 09:18:30;;;;;;;5.00;4.10;;;;;;;47.72;26.35;100371.89;106760;1284;59148;-82
2023/08/03 09:21:31;;;;;;;4.80;4.00;;;;;;;47.35;26.20;100376.96;106956;1283;59028;-82
2023/08/03 09:23:59;;;;;;;;;;;;;;;47.27;26.19;100371.48;106258;1290;59163;-83
2023/08/03 09:26:25;;;;;;;3.80;3.50;;;;;;;47.32;26.32;100371.89;106261;1291;66971;-83
2023/08/03 09:28:51;;;;;;;4.10;3.20;;;;;;;46.83;26.57;100374.65;106273;1291;59303;-81
2023/08/03 09:31:25;;;;;;;7.20;3.40;;;;;;;45.98;27.25;100375.25;106236;1291;59101;-84
2023/08/03 09:33:55;;;;;;;4.00;3.50;;;;;;;45.39;27.74;100371.94;106140;1293;59081;-83
2023/08/03 09:36:21;;;;;;;7.30;3.00;;;;;;;45.07;28.54;100375.49;106212;1291;59015;-83
2023/08/03 09:38:46;;;;;;;5.90;3.40;;;;;;;45.04;28.95;100370.60;106225;1291;59216;-81
2023/08/03 09:41:12;;;;;;;3.50;3.10;;;;;;;45.10;29.12;100371.43;106205;1291;59354;-82
2023/08/03 09:43:40;;;;;;;6.10;2.90;;;;;;;45.03;28.86;100369.97;106189;1291;59423;-83
2023/08/03 09:46:06;;;;;;;3.40;2.50;;;;;;;44.91;29.24;100365.23;106157;1291;59014;-82
2023/08/03 09:48:32;;;;;;;4.00;3.10;;;;;;;44.89;29.14;100368.58;106093;1291;59134;-82
2023/08/03 09:51:00;;;;;;;9.50;3.10;;;;;;;44.67;29.56;100374.41;106226;1291;59109;-82
2023/08/03 09:53:30;;;;;;;7.80;3.20;;;;;;;44.59;29.72;100376.14;106192;1292;59851;-82
2023/08/03 09:56:00;;;;;;;5.30;3.20;;;;;;;44.24;29.06;100374.95;106163;1291;73488;-83
2023/08/03 09:58:41;;;;;;;6.10;3.40;;;;;;;43.58;29.85;100372.14;106503;1286;61511;-84
2023/08/03 10:01:10;;;;;;;5.80;3.40;;;;;;;43.37;30.67;100374.81;106589;1286;61193;-82
2023/08/03 10:03:38;;;;;;;5.70;3.60;;;;;;;43.18;30.57;100381.90;106702;1285;75196;-81
2023/08/03 10:06:19;;;;;;;7.00;4.20;;;;;;;42.28;30.85;100383.88;106445;1286;73849;-83
2023/08/03 10:09:02;;;;;;;4.10;3.30;;;;;;;41.11;32.22;100383.86;106675;1285;73244;-81
2023/08/03 10:11:31;;;;;;;5.70;3.80;;;;;;;40.49;32.92;100383.46;106732;1285;60371;-81
2023/08/03 10:14:03;;;;;;;11.40;3.70;;;;;;;40.22;34.33;100385.08;106510;1286;61136;-82
2023/08/03 10:16:29;;;;;;;12.50;4.50;;;;;;;40.51;33.80;100383.30;106471;1286;75888;-81
2023/08/03 10:18:55;;;;;;;9.90;4.90;;;;;;;40.66;33.57;100379.77;106696;1286;74312;-83
2023/08/03 10:21:21;;;;;;;13.00;5.40;;;;;;;40.68;33.82;100383.67;106686;1286;59101;-80
2023/08/03 10:24:09;;;;;;;10.50;5.50;;;;;;;40.76;33.49;100383.73;106716;1286;59027;-81
2023/08/03 10:26:34;;;;;;;8.40;5.00;;;;;;;40.69;33.78;100383.40;106676;1286;60974;-81
2023/08/03 10:29:00;;;;;;;8.80;5.00;;;;;;;40.69;33.76;100382.27;106689;1285;59493;-82
2023/08/03 10:31:25;;;;;;;10.80;5.50;;;;;;;40.36;33.43;100380.33;106709;1285;59053;-82
2023/08/03 10:33:51;;;;;;;8.20;5.10;;;;;;;39.87;33.88;100381.94;106900;1284;59058;-81
2023/08/03 10:36:31;;;;;;;12.70;5.50;;;;;;;39.31;34.75;100383.66;107014;1283;59111;-82
2023/08/03 10:38:58;;;;;;;11.00;5.50;;;;;;;39.15;35.41;100380.90;106959;1284;75329;-82
2023/08/03 10:41:25;;;;;;;14.80;5.00;;;;;;;39.07;35.42;100382.55;106913;1284;73372;-81
2023/08/03 10:44:10;;;;;;;10.70;5.20;;;;;;;39.18;35.91;100384.61;106767;1283;74024;-81
2023/08/03 10:46:38;;;;;;;13.40;5.20;;;;;;;39.49;35.93;100386.07;106486;1285;59092;-80
2023/08/03 10:49:22;;;;;;;11.10;5.50;;;;;;;39.70;35.16;100378.61;106981;1283;61311;-81
2023/08/03 10:51:55;;;;;;;7.00;5.20;;;;;;;39.75;35.69;100381.73;106930;1284;74291;-80
2023/08/03 10:54:29;;;;;;;8.20;5.00;;;;;;;39.80;35.79;100381.38;106975;1284;74113;-80
2023/08/03 10:57:06;;;;;;;10.70;5.70;;;;;;;39.79;35.64;100383.20;106728;1285;71605;-80
2023/08/03 10:59:46;;;;;;;10.50;5.40;;;;;;;39.88;34.31;100386.94;106715;1285;60177;-81
2023/08/03 11:02:14;;;;;;;12.10;5.40;;;;;;;39.66;34.95;100383.86;106692;1285;61314;-79
2023/08/03 11:04:40;;;;;;;14.50;5.80;;;;;;;39.70;35.63;100383.52;106740;1285;75433;-80